createdAt,value
2022-12-28T00:00:09.980Z,2.20
2022-12-28T00:02:39.964Z,2.19
2022-12-28T00:05:07.060Z,2.07
2022-12-28T00:07:34.311Z,1.76
2022-12-28T00:10:01.358Z,1.64
2022-12-28T00:12:29.406Z,1.81
2022-12-28T00:14:56.370Z,2.06
2022-12-28T00:17:23.364Z,2.06
2022-12-28T00:19:50.413Z,1.92
2022-12-28T00:22:17.420Z,1.76
2022-12-28T00:24:44.474Z,1.64
2022-12-28T00:27:11.408Z,2.03
2022-12-28T00:29:38.453Z,2.25
2022-12-28T00:32:05.663Z,2.18
2022-12-28T00:34:32.616Z,2.02
2022-12-28T00:37:09.696Z,1.85
2022-12-28T00:39:40.704Z,1.75
2022-12-28T00:42:07.625Z,1.88
2022-12-28T00:44:34.516Z,2.09
2022-12-28T00:47:01.507Z,1.97
2022-12-28T00:49:28.403Z,1.77
2022-12-28T00:51:55.389Z,1.61
2022-12-28T00:54:23.037Z,1.70
2022-12-28T00:56:49.996Z,1.93
2022-12-28T00:59:17.660Z,1.80
2022-12-28T01:01:44.686Z,1.78
2022-12-28T01:04:11.974Z,1.63
2022-12-28T01:06:40.079Z,1.64
2022-12-28T01:09:07.092Z,2.00
2022-12-28T01:11:34.028Z,2.11
2022-12-28T01:14:01.836Z,1.98
2022-12-28T01:16:30.761Z,1.81
2022-12-28T01:18:59.493Z,1.67
2022-12-28T01:21:28.201Z,1.68
2022-12-28T01:23:56.644Z,1.95
2022-12-28T01:26:24.599Z,1.88
2022-12-28T01:28:51.588Z,1.66
2022-12-28T01:31:19.400Z,1.49
2022-12-28T01:33:46.537Z,1.34
2022-12-28T01:36:15.559Z,1.71
2022-12-28T01:38:43.416Z,1.77
2022-12-28T01:41:11.437Z,1.67
2022-12-28T01:43:43.248Z,1.48
2022-12-28T01:46:12.191Z,1.46
2022-12-28T01:48:44.144Z,1.91
2022-12-28T01:51:12.271Z,2.04
2022-12-28T01:53:39.111Z,1.85
2022-12-28T01:56:06.309Z,1.72
2022-12-28T01:58:33.434Z,1.48
2022-12-28T02:01:01.354Z,1.70
2022-12-28T02:03:29.463Z,1.98
2022-12-28T02:05:57.825Z,1.95
2022-12-28T02:08:27.716Z,1.73
2022-12-28T02:10:54.601Z,1.52
2022-12-28T02:13:22.413Z,1.53
2022-12-28T02:15:49.500Z,1.78
2022-12-28T02:18:17.569Z,1.97
2022-12-28T02:20:57.222Z,1.87
2022-12-28T02:23:27.948Z,1.60
2022-12-28T02:26:09.891Z,1.43
2022-12-28T02:29:13.447Z,1.71
2022-12-28T02:31:48.485Z,1.98
2022-12-28T02:34:25.875Z,1.83
2022-12-28T02:36:55.953Z,1.61
2022-12-28T02:39:44.855Z,1.47
2022-12-28T02:42:11.929Z,1.70
2022-12-28T02:44:57.910Z,2.08
2022-12-28T02:47:43.751Z,1.95
2022-12-28T02:50:12.303Z,1.80
2022-12-28T02:53:15.289Z,1.62
2022-12-28T02:56:08.196Z,1.43
2022-12-28T02:59:15.913Z,1.90
2022-12-28T03:02:11.101Z,2.02
2022-12-28T03:04:49.526Z,1.81
2022-12-28T03:07:40.030Z,1.58
2022-12-28T03:11:19.464Z,1.36
2022-12-28T03:13:56.858Z,1.77
2022-12-28T03:16:28.874Z,2.07
2022-12-28T03:19:25.470Z,2.04
2022-12-28T03:22:12.898Z,1.80
2022-12-28T03:25:01.470Z,1.59
2022-12-28T03:27:48.244Z,1.45
2022-12-28T03:30:38.392Z,1.88
2022-12-28T03:33:05.955Z,2.05
2022-12-28T03:36:13.328Z,1.95
2022-12-28T03:39:10.039Z,1.75
2022-12-28T03:42:19.671Z,1.55
2022-12-28T03:44:50.914Z,1.62
2022-12-28T03:47:18.091Z,1.94
2022-12-28T03:49:45.829Z,1.99
2022-12-28T03:52:12.911Z,1.76
2022-12-28T03:54:40.840Z,1.71
2022-12-28T03:57:08.472Z,1.56
2022-12-28T03:59:38.593Z,1.49
2022-12-28T04:02:05.845Z,1.74
2022-12-28T04:04:33.431Z,2.12
2022-12-28T04:07:00.522Z,2.07
2022-12-28T04:09:27.635Z,1.84
2022-12-28T04:11:54.832Z,1.69
2022-12-28T04:14:27.570Z,1.52
2022-12-28T04:16:54.774Z,1.59
2022-12-28T04:19:21.785Z,1.91
2022-12-28T04:21:48.994Z,2.00
2022-12-28T04:24:15.928Z,1.88
2022-12-28T04:26:43.006Z,1.72
2022-12-28T04:29:10.355Z,1.50
2022-12-28T04:31:58.187Z,1.66
2022-12-28T04:34:25.693Z,1.98
2022-12-28T04:37:12.977Z,1.97
2022-12-28T04:39:54.662Z,1.69
2022-12-28T04:42:24.767Z,1.56
2022-12-28T04:44:51.724Z,1.32
2022-12-28T04:47:18.634Z,1.68
2022-12-28T04:49:45.519Z,1.96
2022-12-28T04:52:12.427Z,1.96
2022-12-28T04:54:39.342Z,1.73
2022-12-28T04:57:07.071Z,1.49
2022-12-28T04:59:34.066Z,1.34
2022-12-28T05:02:01.121Z,1.68
2022-12-28T05:04:28.153Z,2.04
2022-12-28T05:06:55.058Z,1.96
2022-12-28T05:09:22.068Z,1.76
2022-12-28T05:11:48.988Z,1.52
2022-12-28T05:14:15.993Z,1.35
2022-12-28T05:16:42.900Z,1.47
2022-12-28T05:19:09.794Z,1.85
2022-12-28T05:21:36.781Z,1.88
2022-12-28T05:24:04.268Z,1.64
2022-12-28T05:26:31.212Z,1.53
2022-12-28T05:28:59.024Z,1.32
2022-12-28T05:31:26.523Z,1.39
2022-12-28T05:33:54.057Z,1.74
2022-12-28T05:36:25.597Z,1.77
2022-12-28T05:38:53.424Z,1.68
2022-12-28T05:41:25.156Z,1.54
2022-12-28T05:43:52.330Z,1.29
2022-12-28T05:46:21.198Z,1.31
2022-12-28T05:48:48.292Z,1.75
2022-12-28T05:51:17.334Z,1.81
2022-12-28T05:53:44.428Z,1.57
2022-12-28T05:56:16.391Z,1.32
2022-12-28T05:58:44.227Z,1.05
2022-12-28T06:01:17.204Z,1.08
2022-12-28T06:03:44.913Z,1.46
2022-12-28T06:06:13.864Z,1.47
2022-12-28T06:08:41.216Z,1.23
2022-12-28T06:11:09.625Z,1.04
2022-12-28T06:13:36.817Z,0.79
2022-12-28T06:16:08.096Z,1.04
2022-12-28T06:18:35.252Z,1.35
2022-12-28T06:21:07.596Z,1.29
2022-12-28T06:23:34.624Z,1.14
2022-12-28T06:26:02.572Z,1.00
2022-12-28T06:28:29.479Z,0.84
2022-12-28T06:31:11.283Z,1.15
2022-12-28T06:33:38.232Z,1.38
2022-12-28T06:36:05.955Z,1.38
2022-12-28T06:38:34.503Z,1.30
2022-12-28T06:41:13.310Z,1.12
2022-12-28T06:43:41.992Z,1.03
2022-12-28T06:46:09.404Z,1.43
2022-12-28T06:48:36.833Z,1.90
2022-12-28T06:51:08.630Z,1.87
2022-12-28T06:53:37.050Z,1.68
2022-12-28T06:56:15.036Z,1.66
2022-12-28T06:58:42.271Z,1.48
2022-12-28T07:01:16.983Z,1.32
2022-12-28T07:03:45.013Z,1.30
2022-12-28T07:06:13.037Z,1.93
2022-12-28T07:08:40.503Z,2.06
2022-12-28T07:11:09.616Z,2.01
2022-12-28T07:13:36.542Z,1.81
2022-12-28T07:16:04.953Z,1.55
2022-12-28T07:18:32.989Z,1.29
2022-12-28T07:21:03.716Z,1.06
2022-12-28T07:23:31.586Z,1.39
2022-12-28T07:25:58.832Z,1.70
2022-12-28T07:28:25.889Z,1.58
2022-12-28T07:30:52.964Z,1.41
2022-12-28T07:33:19.944Z,1.28
2022-12-28T07:35:46.842Z,1.29
2022-12-28T07:38:17.951Z,1.16
2022-12-28T07:40:48.129Z,1.53
2022-12-28T07:43:15.138Z,1.96
2022-12-28T07:45:42.103Z,2.10
2022-12-28T07:48:09.131Z,2.02
2022-12-28T07:50:38.116Z,2.02
2022-12-28T07:53:05.309Z,2.09
2022-12-28T07:55:32.286Z,2.03
2022-12-28T07:57:59.212Z,2.02
2022-12-28T08:00:26.474Z,1.96
2022-12-28T08:02:56.527Z,1.90
2022-12-28T08:05:23.593Z,1.94
2022-12-28T08:07:50.626Z,2.00
2022-12-28T08:10:17.505Z,1.91
2022-12-28T08:12:44.323Z,2.00
2022-12-28T08:15:11.556Z,2.09
2022-12-28T08:17:38.611Z,2.19
2022-12-28T08:20:06.250Z,2.34
2022-12-28T08:22:33.741Z,2.49
2022-12-28T08:25:00.646Z,2.44
2022-12-28T08:27:27.532Z,2.25
2022-12-28T08:29:54.655Z,2.43
2022-12-28T08:32:21.553Z,2.47
2022-12-28T08:34:48.450Z,2.61
2022-12-28T08:37:15.342Z,2.64
2022-12-28T08:39:42.243Z,2.78
2022-12-28T08:42:09.170Z,2.90
2022-12-28T08:44:36.048Z,2.88
2022-12-28T08:47:03.017Z,2.75
2022-12-28T08:49:30.114Z,2.89
2022-12-28T08:51:57.097Z,2.95
2022-12-28T08:54:24.203Z,3.14
2022-12-28T08:56:52.997Z,3.36
2022-12-28T08:59:19.937Z,3.32
2022-12-28T09:01:47.487Z,3.54
2022-12-28T09:04:21.920Z,3.42
2022-12-28T09:06:49.233Z,3.23
2022-12-28T09:09:17.595Z,3.09
2022-12-28T09:11:44.915Z,2.92
2022-12-28T09:14:20.386Z,2.83
2022-12-28T09:16:49.434Z,2.76
2022-12-28T09:19:16.498Z,2.77
2022-12-28T09:21:45.106Z,3.27
2022-12-28T09:24:12.879Z,3.48
2022-12-28T09:26:40.020Z,3.44
2022-12-28T09:29:09.046Z,3.26
2022-12-28T09:31:37.596Z,3.10
2022-12-28T09:36:52.654Z,2.74
2022-12-28T09:39:21.021Z,2.65
2022-12-28T09:41:55.205Z,2.61
2022-12-28T09:44:53.820Z,2.59
2022-12-28T09:47:23.839Z,3.18
2022-12-28T09:50:09.838Z,3.30
2022-12-28T09:52:37.507Z,3.14
2022-12-28T09:55:12.630Z,3.06
2022-12-28T09:57:42.527Z,2.88
2022-12-28T10:00:17.058Z,2.77
2022-12-28T10:02:45.931Z,2.62
2022-12-28T10:05:13.045Z,2.55
2022-12-28T10:07:39.889Z,3.00
2022-12-28T10:10:07.475Z,3.30
2022-12-28T10:12:34.371Z,3.20
2022-12-28T10:15:01.508Z,3.07
2022-12-28T10:17:30.477Z,2.95
2022-12-28T10:19:58.276Z,2.79
2022-12-28T10:22:25.817Z,2.68
2022-12-28T10:24:52.864Z,2.61
2022-12-28T10:27:30.595Z,2.74
2022-12-28T10:29:59.450Z,3.29
2022-12-28T10:32:26.520Z,3.43
2022-12-28T10:35:01.101Z,3.50
2022-12-28T10:37:30.460Z,3.38
2022-12-28T10:39:59.198Z,3.18
2022-12-28T10:42:29.739Z,3.11
2022-12-28T10:45:00.802Z,2.97
2022-12-28T10:47:35.763Z,2.92
2022-12-28T10:50:36.040Z,2.91
2022-12-28T10:52:58.016Z,2.93
2022-12-28T10:55:30.211Z,3.23
2022-12-28T10:58:33.725Z,3.90
2022-12-28T11:01:04.556Z,4.12
2022-12-28T11:03:35.577Z,4.03
2022-12-28T11:06:09.827Z,3.89
2022-12-28T11:08:37.907Z,3.69
2022-12-28T11:11:04.973Z,3.55
2022-12-28T11:13:32.017Z,3.76
2022-12-28T11:15:59.710Z,4.17
2022-12-28T11:18:26.713Z,4.55
2022-12-28T11:20:55.236Z,4.73
2022-12-28T11:23:31.837Z,4.88
2022-12-28T11:25:59.136Z,4.92
2022-12-28T11:28:26.019Z,4.88
2022-12-28T11:30:53.083Z,4.94
2022-12-28T11:33:38.306Z,4.84
2022-12-28T11:36:09.850Z,4.90
2022-12-28T11:38:44.043Z,4.80
2022-12-28T11:41:37.224Z,4.72
2022-12-28T11:44:05.510Z,4.61
2022-12-28T11:46:35.632Z,4.44
2022-12-28T11:49:04.396Z,4.32
2022-12-28T11:51:35.626Z,4.41
2022-12-28T11:54:04.427Z,4.36
2022-12-28T11:56:43.578Z,4.29
2022-12-28T11:59:33.669Z,4.30
2022-12-28T12:02:23.472Z,4.25
2022-12-28T12:04:50.335Z,4.17
2022-12-28T12:07:31.220Z,4.19
2022-12-28T12:10:34.351Z,4.19
2022-12-28T12:13:02.466Z,4.15
2022-12-28T12:15:40.472Z,4.09
2022-12-28T12:18:09.435Z,4.06
2022-12-28T12:20:39.482Z,3.90
2022-12-28T12:23:08.709Z,3.84
2022-12-28T12:25:39.618Z,3.84
2022-12-28T12:28:20.110Z,3.77
2022-12-28T12:30:47.173Z,3.66
2022-12-28T12:33:16.793Z,3.53
2022-12-28T12:35:56.829Z,3.49
2022-12-28T12:38:43.544Z,3.48
2022-12-28T12:41:32.050Z,3.52
2022-12-28T12:44:03.556Z,3.46
2022-12-28T12:47:05.472Z,3.36
2022-12-28T12:49:51.605Z,3.26
2022-12-28T12:52:49.799Z,3.19
2022-12-28T12:55:39.129Z,3.17
2022-12-28T12:58:38.689Z,3.12
2022-12-28T13:01:15.739Z,3.06
2022-12-28T13:03:47.281Z,3.03
2022-12-28T13:06:16.511Z,3.04
2022-12-28T13:09:04.949Z,3.06
2022-12-28T13:11:36.002Z,3.05
2022-12-28T13:14:03.015Z,3.01
2022-12-28T13:16:30.286Z,2.97
2022-12-28T13:18:58.335Z,2.95
2022-12-28T13:21:27.310Z,2.95
2022-12-28T13:23:54.392Z,2.94
2022-12-28T13:26:28.139Z,2.82
2022-12-28T13:29:02.814Z,2.79
2022-12-28T13:31:36.522Z,2.72
2022-12-28T13:34:24.040Z,2.63
2022-12-28T13:36:59.433Z,2.50
2022-12-28T13:39:28.367Z,2.39
2022-12-28T13:41:56.299Z,2.28
2022-12-28T13:44:28.145Z,2.18
2022-12-28T13:47:04.882Z,2.11
2022-12-28T13:49:35.497Z,2.66
2022-12-28T13:52:07.019Z,3.32
2022-12-28T13:54:33.899Z,3.35
2022-12-28T13:57:20.834Z,3.18
2022-12-28T13:59:47.849Z,2.91
2022-12-28T14:02:16.774Z,2.65
2022-12-28T14:04:52.741Z,2.44
2022-12-28T14:07:20.583Z,2.19
2022-12-28T14:09:47.513Z,1.97
2022-12-28T14:12:14.595Z,1.78
2022-12-28T14:14:41.689Z,1.64
2022-12-28T14:17:08.668Z,1.50
2022-12-28T14:19:35.590Z,1.40
2022-12-28T14:22:02.572Z,1.32
2022-12-28T14:24:29.598Z,1.82
2022-12-28T14:26:58.139Z,2.47
2022-12-28T14:29:32.824Z,2.56
2022-12-28T14:32:07.081Z,2.28
2022-12-28T14:34:34.950Z,2.11
2022-12-28T14:37:02.329Z,1.88
2022-12-28T14:39:31.546Z,1.64
2022-12-28T14:41:58.776Z,1.45
2022-12-28T14:44:28.701Z,1.26
2022-12-28T14:46:55.874Z,1.16
2022-12-28T14:49:28.929Z,1.12
2022-12-28T14:51:56.388Z,1.62
2022-12-28T14:54:26.807Z,2.14
2022-12-28T14:56:55.034Z,2.15
2022-12-28T14:59:40.100Z,1.94
2022-12-28T15:02:33.316Z,1.72
2022-12-28T15:05:01.470Z,1.47
2022-12-28T15:07:28.364Z,1.25
2022-12-28T15:09:55.303Z,1.08
2022-12-28T15:12:22.885Z,0.96
2022-12-28T15:14:50.121Z,1.41
2022-12-28T15:17:17.073Z,1.81
2022-12-28T15:19:45.222Z,1.76
2022-12-28T15:22:12.727Z,1.61
2022-12-28T15:24:41.492Z,1.42
2022-12-28T15:27:08.712Z,1.27
2022-12-28T15:32:22.458Z,0.97
2022-12-28T15:34:49.393Z,1.32
2022-12-28T15:37:16.311Z,1.83
2022-12-28T15:39:43.212Z,1.95
2022-12-28T15:42:10.106Z,1.81
2022-12-28T15:44:37.177Z,1.56
2022-12-28T15:47:04.152Z,1.35
2022-12-28T15:49:31.021Z,1.20
2022-12-28T15:51:58.009Z,0.99
2022-12-28T15:54:24.945Z,1.16
2022-12-28T15:56:53.368Z,1.71
2022-12-28T15:59:20.521Z,1.82
2022-12-28T16:01:48.309Z,1.72
2022-12-28T16:04:15.458Z,1.38
2022-12-28T16:06:45.115Z,1.15
2022-12-28T16:09:13.034Z,0.91
2022-12-28T16:11:40.233Z,0.73
2022-12-28T16:14:07.753Z,0.63
2022-12-28T16:16:36.407Z,1.07
2022-12-28T16:19:03.630Z,1.47
2022-12-28T16:21:30.624Z,1.47
2022-12-28T16:23:58.887Z,1.29
2022-12-28T16:26:25.816Z,1.18
2022-12-28T16:28:52.819Z,0.90
2022-12-28T16:31:24.007Z,0.73
2022-12-28T16:33:55.120Z,0.64
2022-12-28T16:36:22.319Z,1.07
2022-12-28T16:38:49.279Z,1.48
2022-12-28T16:41:16.339Z,1.54
2022-12-28T16:43:43.217Z,1.25
2022-12-28T16:46:10.403Z,1.11
2022-12-28T16:48:37.591Z,0.88
2022-12-28T16:51:04.638Z,0.68
2022-12-28T16:53:33.629Z,0.56
2022-12-28T16:56:01.438Z,0.63
2022-12-28T16:58:29.277Z,1.19
2022-12-28T17:00:56.636Z,1.32
2022-12-28T17:03:27.912Z,1.25
2022-12-28T17:05:54.898Z,1.07
2022-12-28T17:08:21.792Z,0.91
2022-12-28T17:10:48.689Z,0.74
2022-12-28T17:13:16.457Z,0.62
2022-12-28T17:15:45.957Z,0.81
2022-12-28T17:18:13.681Z,1.34
2022-12-28T17:20:41.039Z,1.39
2022-12-28T17:23:08.013Z,1.41
2022-12-28T17:25:35.375Z,1.21
2022-12-28T17:28:02.552Z,1.00
2022-12-28T17:30:29.746Z,0.84
2022-12-28T17:32:56.714Z,0.65
2022-12-28T17:35:23.848Z,0.99
2022-12-28T17:37:50.959Z,1.43
2022-12-28T17:40:17.925Z,1.55
2022-12-28T17:42:44.956Z,1.38
2022-12-28T17:45:12.343Z,1.21
2022-12-28T17:47:39.312Z,1.02
2022-12-28T17:50:06.904Z,0.78
2022-12-28T17:52:33.763Z,0.74
2022-12-28T17:55:00.611Z,1.20
2022-12-28T17:57:27.538Z,1.44
2022-12-28T17:59:54.450Z,1.36
2022-12-28T18:02:21.517Z,1.16
2022-12-28T18:04:48.672Z,0.95
2022-12-28T18:07:15.552Z,0.73
2022-12-28T18:09:42.595Z,0.68
2022-12-28T18:12:09.553Z,0.89
2022-12-28T18:14:36.479Z,1.44
2022-12-28T18:17:03.822Z,1.44
2022-12-28T18:19:30.800Z,1.36
2022-12-28T18:21:57.676Z,1.18
2022-12-28T18:24:24.779Z,0.97
2022-12-28T18:26:51.650Z,0.81
2022-12-28T18:29:18.660Z,0.76
2022-12-28T18:31:45.734Z,1.09
2022-12-28T18:34:12.734Z,1.26
2022-12-28T18:36:39.659Z,1.21
2022-12-28T18:39:06.676Z,1.08
2022-12-28T18:41:34.511Z,0.99
2022-12-28T18:44:02.999Z,0.80
2022-12-28T18:46:30.342Z,0.74
2022-12-28T18:48:57.411Z,1.27
2022-12-28T18:51:24.445Z,1.40
2022-12-28T18:53:51.573Z,1.31
2022-12-28T18:56:19.780Z,1.08
2022-12-28T18:58:51.400Z,0.92
2022-12-28T19:04:10.055Z,0.66
2022-12-28T19:06:37.525Z,0.98
2022-12-28T19:09:04.633Z,1.39
2022-12-28T19:11:31.751Z,1.35
2022-12-28T19:13:58.755Z,1.21
2022-12-28T19:16:31.019Z,1.07
2022-12-28T19:18:59.325Z,0.80
2022-12-28T19:21:30.206Z,0.68
2022-12-28T19:24:04.685Z,0.98
2022-12-28T19:26:32.090Z,1.38
2022-12-28T19:28:59.397Z,1.38
2022-12-28T19:31:26.995Z,1.15
2022-12-28T19:33:54.083Z,1.09
2022-12-28T19:36:21.522Z,0.94
2022-12-28T19:38:48.630Z,0.78
2022-12-28T19:41:16.319Z,0.98
2022-12-28T19:43:43.649Z,1.34
2022-12-28T19:46:12.965Z,1.45
2022-12-28T19:48:40.047Z,1.40
2022-12-28T19:51:09.698Z,1.17
2022-12-28T19:53:37.573Z,1.06
2022-12-28T19:56:09.261Z,0.93
2022-12-28T19:58:39.388Z,1.02
2022-12-28T20:01:08.074Z,1.42
2022-12-28T20:03:35.212Z,1.59
2022-12-28T20:06:09.362Z,1.51
2022-12-28T20:08:36.373Z,1.33
2022-12-28T20:11:03.744Z,1.14
2022-12-28T20:13:31.572Z,0.90
2022-12-28T20:15:58.761Z,0.76
2022-12-28T20:18:25.814Z,0.81
2022-12-28T20:21:18.670Z,1.31
2022-12-28T20:23:39.839Z,1.36
2022-12-28T20:26:06.853Z,1.21
2022-12-28T20:28:34.587Z,1.02
2022-12-28T20:31:04.674Z,0.84
2022-12-28T20:33:38.061Z,0.67
2022-12-28T20:36:09.140Z,0.49
2022-12-28T20:38:39.837Z,0.58
2022-12-28T20:41:37.132Z,1.03
2022-12-28T20:44:07.451Z,1.13
2022-12-28T20:46:37.861Z,0.97
2022-12-28T20:49:07.866Z,0.77
2022-12-28T20:51:38.835Z,0.58
2022-12-28T20:54:09.808Z,0.38
2022-12-28T20:56:41.938Z,0.26
2022-12-28T20:59:11.776Z,0.27
2022-12-28T21:01:41.927Z,0.77
2022-12-28T21:04:11.442Z,1.14
2022-12-28T21:06:40.858Z,1.00
2022-12-28T21:09:10.180Z,0.91
2022-12-28T21:11:38.984Z,0.72
2022-12-28T21:14:08.869Z,0.55
2022-12-28T21:16:37.822Z,0.46
2022-12-28T21:19:07.144Z,0.33
2022-12-28T21:21:36.501Z,0.26
2022-12-28T21:24:06.351Z,0.16
2022-12-28T21:26:35.884Z,0.43
2022-12-28T21:36:39.792Z,0.77
2022-12-28T21:39:06.807Z,0.50
2022-12-28T21:41:49.042Z,0.33
2022-12-28T21:44:22.819Z,0.18
2022-12-28T21:46:51.356Z,0.01
2022-12-28T21:49:19.341Z,-0.07
2022-12-28T21:51:46.391Z,0.28
2022-12-28T21:54:14.495Z,0.67
2022-12-28T21:56:42.632Z,0.68
2022-12-28T21:59:11.195Z,0.47
2022-12-28T22:01:57.563Z,0.35
2022-12-28T22:04:43.712Z,0.13
2022-12-28T22:07:11.675Z,-0.04
2022-12-28T22:09:58.080Z,-0.16
2022-12-28T22:12:34.795Z,-0.22
2022-12-28T22:15:32.135Z,0.22
2022-12-28T22:18:02.336Z,0.67
2022-12-28T22:20:29.411Z,0.66
2022-12-28T22:22:58.444Z,0.60
2022-12-28T22:25:26.023Z,0.43
2022-12-28T22:27:52.922Z,0.25
2022-12-28T22:30:20.140Z,0.14
2022-12-28T22:32:47.032Z,0.01
2022-12-28T22:35:14.222Z,-0.11
2022-12-28T22:37:43.012Z,0.22
2022-12-28T22:40:10.712Z,0.64
2022-12-28T22:42:43.540Z,0.81
2022-12-28T22:45:14.804Z,0.64
2022-12-28T22:47:41.710Z,0.49
2022-12-28T22:50:10.209Z,0.31
2022-12-28T22:52:37.137Z,0.12
2022-12-28T22:55:04.728Z,-0.03
2022-12-28T22:57:31.662Z,-0.19
2022-12-28T22:59:58.637Z,-0.10
2022-12-28T23:02:25.557Z,0.41
2022-12-28T23:04:52.649Z,0.61
2022-12-28T23:07:19.573Z,0.50
2022-12-28T23:09:46.498Z,0.32
2022-12-28T23:12:13.381Z,0.13
2022-12-28T23:14:59.166Z,-0.04
2022-12-28T23:17:26.818Z,-0.21
2022-12-28T23:20:12.576Z,-0.33
2022-12-28T23:22:58.473Z,-0.11
2022-12-28T23:25:44.368Z,0.41
2022-12-28T23:28:13.009Z,0.40
2022-12-28T23:30:41.705Z,0.28
2022-12-28T23:33:08.714Z,0.08
2022-12-28T23:35:35.520Z,-0.11
2022-12-28T23:38:02.352Z,-0.27
2022-12-28T23:40:29.307Z,-0.41
2022-12-28T23:42:56.459Z,-0.40
2022-12-28T23:45:23.407Z,0.07
2022-12-28T23:47:52.087Z,0.26
2022-12-28T23:50:19.493Z,0.19
2022-12-28T23:52:46.580Z,0.04
2022-12-28T23:55:13.547Z,-0.16
2022-12-28T23:57:40.400Z,-0.33
